Time;durP1;ratioP1;P1;durP2;ratioP2;P2;SDS_P1;SDS_P2;PMS_P1;PMS_P2;Temp;Humidity;BMP_temperature;BMP_pressure;BME280_temperature;BME280_humidity;BME280_pressure;Samples;Min_cycle;Max_cycle;Signal;HPM_P1;HPM_P2
2023/05/02 00:01:14;;;;;;;4.75;4.15;;;;;;;13.95;66.00;95362.31;5007693;28;20289;-64
2023/05/02 00:03:42;;;;;;;4.10;3.80;;;;;;;13.99;65.97;95352.81;5006385;28;20298;-62
2023/05/02 00:06:10;;;;;;;5.35;3.63;;;;;;;14.07;65.58;95356.72;5002867;28;20675;-64
2023/05/02 00:08:36;;;;;;;5.05;3.60;;;;;;;14.03;65.90;95354.34;5001838;28;20199;-63
2023/05/02 00:11:04;;;;;;;4.07;3.70;;;;;;;14.00;65.36;95357.03;5006218;28;20283;-63
2023/05/02 00:13:32;;;;;;;3.75;3.45;;;;;;;13.97;65.98;95345.19;5003839;28;20318;-63
2023/05/02 00:15:58;;;;;;;4.00;3.70;;;;;;;14.03;65.62;95355.16;5001913;28;20299;-63
2023/05/02 00:18:25;;;;;;;6.25;4.15;;;;;;;14.04;65.47;95356.00;5003848;28;20307;-63
2023/05/02 00:20:52;;;;;;;3.92;3.63;;;;;;;14.04;65.70;95349.16;5006105;28;20243;-62
2023/05/02 00:23:19;;;;;;;3.78;3.47;;;;;;;14.05;65.70;95352.53;5005213;28;20949;-63
2023/05/02 00:25:46;;;;;;;4.97;3.92;;;;;;;13.98;65.79;95358.81;5003663;28;20232;-63
2023/05/02 00:28:13;;;;;;;4.18;3.88;;;;;;;14.02;65.75;95358.63;5000489;28;20319;-62
2023/05/02 00:30:44;;;;;;;3.58;3.38;;;;;;;14.00;66.47;95365.50;5003457;28;20200;-63
2023/05/02 00:33:12;;;;;;;4.50;4.10;;;;;;;14.13;65.92;95360.69;5004389;28;20199;-63
2023/05/02 00:35:38;;;;;;;4.28;3.83;;;;;;;14.04;65.29;95353.44;5005594;28;20342;-62
2023/05/02 00:38:05;;;;;;;4.40;4.00;;;;;;;14.04;65.65;95374.72;5003599;28;20298;-63
2023/05/02 00:40:32;;;;;;;3.65;3.35;;;;;;;14.02;65.82;95371.38;5000859;28;20540;-63
2023/05/02 00:42:58;;;;;;;4.13;3.83;;;;;;;14.06;65.84;95378.03;5007094;28;20239;-63
2023/05/02 00:45:25;;;;;;;4.00;3.80;;;;;;;14.13;65.77;95387.09;5003822;28;20242;-62
2023/05/02 00:47:54;;;;;;;4.07;3.80;;;;;;;14.08;65.85;95383.91;5004845;28;20295;-62
2023/05/02 00:50:21;;;;;;;4.13;3.53;;;;;;;14.01;66.76;95392.72;5004812;28;20224;-62
2023/05/02 00:52:48;;;;;;;3.80;3.60;;;;;;;13.97;66.48;95391.19;5002810;28;20759;-63
2023/05/02 00:55:15;;;;;;;3.90;3.60;;;;;;;14.04;66.06;95391.78;5004233;28;21830;-63
2023/05/02 00:57:42;;;;;;;4.00;3.70;;;;;;;14.09;66.04;95388.13;5005610;28;20467;-63
2023/05/02 01:00:10;;;;;;;3.85;3.65;;;;;;;13.99;66.49;95384.28;5005923;28;20314;-64
2023/05/02 01:02:48;;;;;;;4.38;4.07;;;;;;;13.99;67.01;95389.41;5007111;28;20207;-64
2023/05/02 01:05:21;;;;;;;4.63;4.40;;;;;;;13.91;67.34;95383.78;5005242;28;20305;-64
2023/05/02 01:08:01;;;;;;;4.35;3.95;;;;;;;14.03;66.74;95385.00;5005371;28;20231;-63
2023/05/02 01:10:36;;;;;;;3.88;3.58;;;;;;;13.98;67.00;95390.28;5005067;28;20216;-64
2023/05/02 01:13:08;;;;;;;4.75;4.35;;;;;;;13.93;67.11;95385.38;4996803;28;21172;-62
2023/05/02 01:15:38;;;;;;;4.22;3.30;;;;;;;13.99;67.40;95391.97;5004730;28;20219;-63
2023/05/02 01:18:08;;;;;;;4.15;3.85;;;;;;;13.91;67.39;95376.09;5006321;28;20223;-63
2023/05/02 01:20:40;;;;;;;3.63;3.42;;;;;;;13.88;67.59;95373.69;5004369;28;20382;-62
2023/05/02 01:23:14;;;;;;;4.63;4.20;;;;;;;13.83;68.48;95367.94;5009831;28;20227;-62
2023/05/02 01:25:55;;;;;;;4.47;4.07;;;;;;;13.91;67.64;95373.56;5010930;28;20297;-63
2023/05/02 01:28:36;;;;;;;4.75;4.15;;;;;;;13.87;68.12;95365.19;5003650;28;20330;-63
2023/05/02 01:31:06;;;;;;;4.78;4.53;;;;;;;13.86;68.45;95365.25;5007849;28;20298;-64
2023/05/02 01:33:35;;;;;;;4.28;3.97;;;;;;;13.77;68.95;95363.91;5010776;28;20208;-63
2023/05/02 01:36:03;;;;;;;5.18;4.78;;;;;;;13.69;69.27;95360.00;5004837;28;20744;-63
2023/05/02 01:38:33;;;;;;;4.15;3.88;;;;;;;13.66;69.11;95363.50;5002904;28;20211;-63
2023/05/02 01:41:04;;;;;;;4.35;4.05;;;;;;;13.68;68.98;95369.41;5009448;28;20238;-63
2023/05/02 01:43:35;;;;;;;6.78;4.25;;;;;;;13.59;69.92;95370.63;5004843;28;20295;-63
2023/05/02 01:46:03;;;;;;;4.00;3.63;;;;;;;13.53;69.93;95377.69;5004207;28;20203;-62
2023/05/02 01:48:32;;;;;;;4.90;3.65;;;;;;;13.50;69.84;95376.06;5007349;28;20208;-63
2023/05/02 01:51:00;;;;;;;4.40;4.20;;;;;;;13.51;70.04;95382.00;5006374;28;20713;-63
2023/05/02 01:53:28;;;;;;;4.20;3.90;;;;;;;13.58;69.70;95381.72;5007181;28;20212;-64
2023/05/02 01:55:56;;;;;;;4.00;3.80;;;;;;;13.54;70.00;95382.72;5008693;28;20282;-64
2023/05/02 01:58:25;;;;;;;5.15;4.15;;;;;;;13.50;70.37;95385.47;5007889;28;20330;-64
2023/05/02 02:00:53;;;;;;;4.18;3.88;;;;;;;13.51;70.02;95377.75;5010434;28;20312;-63
2023/05/02 02:03:21;;;;;;;4.65;4.35;;;;;;;13.46;70.43;95374.53;5010492;28;20207;-63
2023/05/02 02:05:52;;;;;;;4.00;3.65;;;;;;;13.35;70.71;95376.69;5007168;28;20258;-64
2023/05/02 02:08:18;;;;;;;4.30;4.10;;;;;;;13.50;70.61;95370.16;5009568;28;20300;-64
2023/05/02 02:10:52;;;;;;;5.13;4.45;;;;;;;13.51;70.70;95375.19;4994936;28;21075;-64
2023/05/02 02:13:23;;;;;;;4.43;4.13;;;;;;;13.49;70.63;95373.59;4999121;28;20290;-65
2023/05/02 02:15:53;;;;;;;4.07;3.88;;;;;;;13.41;71.06;95373.88;4995692;28;20282;-63
2023/05/02 02:18:24;;;;;;;4.18;3.95;;;;;;;13.39;71.02;95372.28;5011588;28;20257;-63
2023/05/02 02:20:54;;;;;;;4.80;3.65;;;;;;;13.25;71.26;95366.00;5009342;28;20239;-63
2023/05/02 02:23:23;;;;;;;6.38;4.50;;;;;;;13.37;71.30;95367.22;5008778;28;20373;-63
2023/05/02 02:25:52;;;;;;;5.50;4.05;;;;;;;13.22;71.61;95372.94;5008913;28;20474;-64
2023/05/02 02:28:19;;;;;;;4.22;3.92;;;;;;;13.30;71.37;95363.28;5007609;28;20199;-65
2023/05/02 02:30:46;;;;;;;4.85;4.65;;;;;;;13.29;71.52;95371.81;5012202;28;20536;-63
2023/05/02 02:33:12;;;;;;;4.93;4.50;;;;;;;13.30;71.63;95373.50;5011578;28;20207;-63
2023/05/02 02:35:43;;;;;;;4.97;4.68;;;;;;;13.28;71.24;95365.06;5011488;28;20297;-62
2023/05/02 02:38:21;;;;;;;8.05;4.25;;;;;;;13.24;71.67;95372.00;5011047;28;20646;-63
2023/05/02 02:40:55;;;;;;;3.78;3.47;;;;;;;13.32;71.32;95376.81;5011182;28;20589;-61
2023/05/02 02:43:33;;;;;;;5.90;3.97;;;;;;;13.27;71.41;95376.16;5001739;28;20756;-61
2023/05/02 02:46:09;;;;;;;4.63;4.10;;;;;;;13.27;71.37;95377.00;5005923;28;21771;-61
2023/05/02 02:48:40;;;;;;;7.78;5.05;;;;;;;13.35;71.16;95376.69;5006788;28;20270;-62
2023/05/02 02:51:12;;;;;;;4.50;4.13;;;;;;;13.38;70.69;95376.56;5007095;28;20247;-62
2023/05/02 02:53:50;;;;;;;4.60;4.30;;;;;;;13.32;71.48;95376.81;4999851;28;20274;-62
2023/05/02 02:56:26;;;;;;;4.55;4.20;;;;;;;13.31;71.05;95384.53;5005934;28;20298;-62
2023/05/02 02:58:58;;;;;;;4.30;4.00;;;;;;;13.24;70.86;95394.97;5007986;28;20357;-61
2023/05/02 03:01:27;;;;;;;4.78;4.43;;;;;;;13.31;71.34;95390.47;5005468;28;20231;-62
2023/05/02 03:03:56;;;;;;;4.50;4.30;;;;;;;13.35;70.93;95391.19;4998098;28;21250;-62
2023/05/02 03:06:24;;;;;;;4.80;4.50;;;;;;;13.33;70.69;95409.09;5006269;28;20307;-64
2023/05/02 03:08:52;;;;;;;4.65;4.35;;;;;;;13.26;71.03;95400.84;5008303;28;20274;-62
2023/05/02 03:11:19;;;;;;;4.88;4.57;;;;;;;13.22;71.28;95401.84;5009677;28;20208;-62
2023/05/02 03:13:46;;;;;;;5.47;4.78;;;;;;;13.21;70.95;95404.47;5009499;28;20187;-62
2023/05/02 03:16:31;;;;;;;5.47;4.97;;;;;;;13.19;71.53;95412.16;5008097;28;20203;-62
2023/05/02 03:18:57;;;;;;;9.02;5.00;;;;;;;13.15;71.33;95405.53;5007839;28;20207;-62
2023/05/02 03:21:24;;;;;;;4.75;4.45;;;;;;;13.12;71.64;95409.88;5004591;28;20318;-63
2023/05/02 03:23:52;;;;;;;6.93;4.88;;;;;;;13.14;71.61;95408.94;5002849;28;20269;-63
2023/05/02 03:26:20;;;;;;;4.97;4.68;;;;;;;13.14;71.38;95408.09;5007909;28;20290;-63
2023/05/02 03:28:46;;;;;;;4.80;4.50;;;;;;;13.13;71.46;95417.47;5008226;28;20643;-62
2023/05/02 03:31:14;;;;;;;5.13;4.82;;;;;;;13.13;71.71;95407.25;5009706;28;20200;-63
2023/05/02 03:33:41;;;;;;;4.38;3.97;;;;;;;13.18;70.91;95413.06;5007941;28;20211;-62
2023/05/02 03:36:07;;;;;;;5.38;4.90;;;;;;;13.19;71.08;95421.56;5008461;28;20748;-65
2023/05/02 03:38:34;;;;;;;5.15;4.75;;;;;;;13.24;70.70;95410.28;5006687;28;20235;-61
2023/05/02 03:41:03;;;;;;;5.25;4.90;;;;;;;13.31;70.48;95413.44;5006817;28;20317;-63
2023/05/02 03:43:29;;;;;;;5.25;4.88;;;;;;;13.39;70.25;95424.16;5006567;28;20231;-62
2023/05/02 03:45:56;;;;;;;5.85;5.18;;;;;;;13.45;69.88;95418.00;5011398;28;20322;-63
2023/05/02 03:48:23;;;;;;;4.93;4.63;;;;;;;13.48;69.52;95413.59;5010787;28;20236;-62
2023/05/02 03:50:50;;;;;;;5.50;5.10;;;;;;;13.43;69.71;95420.59;5011886;28;20700;-62
2023/05/02 03:53:17;;;;;;;5.78;5.28;;;;;;;13.37;70.01;95425.94;5011663;28;20291;-62
2023/05/02 03:55:44;;;;;;;5.78;5.28;;;;;;;13.37;70.32;95425.94;5010664;28;20200;-62
2023/05/02 03:58:12;;;;;;;5.65;5.20;;;;;;;13.41;70.65;95424.94;5012462;28;20218;-63
2023/05/02 04:00:39;;;;;;;7.47;4.57;;;;;;;13.44;70.38;95427.38;5011128;28;20235;-63
2023/05/02 04:03:06;;;;;;;6.13;5.70;;;;;;;13.51;70.26;95428.81;5010693;28;20218;-62
2023/05/02 04:05:33;;;;;;;6.63;5.22;;;;;;;13.55;70.26;95430.34;5012180;28;20360;-63
2023/05/02 04:08:01;;;;;;;6.05;5.30;;;;;;;13.69;69.50;95431.53;5010824;28;20282;-63
2023/05/02 04:10:27;;;;;;;6.05;4.93;;;;;;;14.21;67.68;95436.16;5008793;28;20327;-63
2023/05/02 04:12:54;;;;;;;5.00;4.70;;;;;;;14.76;65.54;95433.84;5011546;28;20291;-63
2023/05/02 04:15:22;;;;;;;6.00;5.60;;;;;;;15.39;63.38;95425.88;5011174;28;20318;-64
2023/05/02 04:17:49;;;;;;;8.13;5.22;;;;;;;15.94;61.38;95426.69;5010111;28;20749;-62
2023/05/02 04:20:15;;;;;;;10.30;5.00;;;;;;;16.04;60.36;95432.19;5013215;28;20254;-62
2023/05/02 04:22:42;;;;;;;4.28;4.03;;;;;;;16.03;59.99;95426.25;5013227;28;20330;-64
2023/05/02 04:25:09;;;;;;;5.22;4.88;;;;;;;16.19;59.27;95405.78;5013164;28;20298;-63
2023/05/02 04:27:37;;;;;;;5.88;5.07;;;;;;;16.31;58.87;95425.72;5011274;28;20334;-65
2023/05/02 04:30:04;;;;;;;4.72;4.43;;;;;;;16.05;59.48;95421.88;5015002;28;20750;-64
2023/05/02 04:32:32;;;;;;;4.85;4.28;;;;;;;16.13;59.29;95431.72;5012881;28;20290;-64
2023/05/02 04:34:59;;;;;;;4.68;4.38;;;;;;;16.23;58.63;95427.81;5014514;28;20297;-63
2023/05/02 04:37:26;;;;;;;6.13;4.43;;;;;;;16.26;58.24;95432.78;5011192;28;20920;-63
2023/05/02 04:39:53;;;;;;;5.40;4.85;;;;;;;16.64;57.30;95423.19;5012127;28;20304;-65
2023/05/02 04:42:19;;;;;;;4.90;4.47;;;;;;;17.05;55.53;95428.72;5010755;28;20611;-64
2023/05/02 04:44:46;;;;;;;10.15;4.32;;;;;;;17.07;55.67;95426.09;5012199;28;20302;-62
2023/05/02 04:47:12;;;;;;;4.40;4.00;;;;;;;16.91;55.82;95437.16;5013910;28;21089;-62
2023/05/02 04:49:41;;;;;;;4.78;4.13;;;;;;;17.00;55.41;95430.72;5014467;28;20207;-62
2023/05/02 04:52:09;;;;;;;5.25;4.70;;;;;;;16.71;56.13;95433.97;5011007;28;20196;-62
2023/05/02 04:54:36;;;;;;;5.07;4.57;;;;;;;16.36;56.72;95425.44;5009647;28;21150;-62
2023/05/02 04:57:05;;;;;;;4.68;4.38;;;;;;;15.92;57.82;95438.75;5013000;28;20360;-61
2023/05/02 04:59:32;;;;;;;4.85;4.53;;;;;;;15.74;58.58;95430.22;5009117;28;20390;-62
2023/05/02 05:01:59;;;;;;;5.20;4.70;;;;;;;15.79;58.67;95430.00;5007473;28;20265;-63
2023/05/02 05:04:26;;;;;;;4.70;4.18;;;;;;;15.98;58.00;95428.19;5012355;28;20924;-63
2023/05/02 05:06:54;;;;;;;5.07;4.63;;;;;;;15.88;58.67;95432.09;5009854;28;20217;-63
2023/05/02 05:09:21;;;;;;;4.78;4.35;;;;;;;15.99;58.41;95434.97;5010848;28;20230;-63
2023/05/02 05:11:47;;;;;;;4.90;4.25;;;;;;;15.93;57.79;95432.72;5011052;28;20252;-63
2023/05/02 05:14:14;;;;;;;4.07;3.83;;;;;;;15.58;58.39;95425.00;5010912;28;20333;-64
2023/05/02 05:16:41;;;;;;;4.28;3.97;;;;;;;15.58;58.48;95440.38;5013415;28;20235;-65
2023/05/02 05:19:07;;;;;;;4.45;3.92;;;;;;;15.59;58.94;95430.94;5001404;28;20211;-65
2023/05/02 05:21:34;;;;;;;4.00;3.70;;;;;;;15.77;58.12;95430.06;5005280;28;20285;-65
2023/05/02 05:24:02;;;;;;;5.40;3.97;;;;;;;16.04;57.14;95430.47;5006572;28;20539;-66
2023/05/02 05:26:29;;;;;;;4.43;4.03;;;;;;;16.08;56.26;95433.72;5005418;28;20218;-64
2023/05/02 05:28:55;;;;;;;5.05;3.90;;;;;;;16.18;56.23;95430.59;5005233;28;20323;-64
2023/05/02 05:31:23;;;;;;;3.72;3.50;;;;;;;16.57;54.70;95438.03;5002425;28;20310;-63
2023/05/02 05:33:49;;;;;;;3.25;3.05;;;;;;;16.66;53.85;95437.59;5006160;28;20208;-63
2023/05/02 05:36:16;;;;;;;8.25;4.30;;;;;;;16.70;53.65;95448.53;5005167;28;20298;-62
2023/05/02 05:38:43;;;;;;;3.85;3.55;;;;;;;17.23;52.14;95432.06;5005897;28;20207;-63
2023/05/02 05:41:11;;;;;;;4.05;3.80;;;;;;;17.72;50.47;95444.81;5003791;28;20220;-64
2023/05/02 05:43:38;;;;;;;4.20;3.70;;;;;;;19.09;47.54;95431.66;5003072;28;20293;-64
2023/05/02 05:46:04;;;;;;;3.83;3.47;;;;;;;20.77;42.95;95434.63;5005394;28;20900;-63
2023/05/02 05:48:31;;;;;;;6.07;3.85;;;;;;;21.21;41.77;95447.09;5000058;28;20241;-63
2023/05/02 05:50:58;;;;;;;4.55;3.10;;;;;;;21.10;41.46;95444.41;5002076;28;20278;-63
2023/05/02 05:53:24;;;;;;;3.78;3.45;;;;;;;21.45;41.12;95434.22;5005999;28;20235;-65
2023/05/02 05:55:51;;;;;;;3.03;2.90;;;;;;;21.76;39.85;95451.81;5003969;28;20239;-65
2023/05/02 05:58:19;;;;;;;3.97;3.63;;;;;;;21.21;41.04;95436.78;5004625;28;20685;-63
2023/05/02 06:00:46;;;;;;;3.72;3.38;;;;;;;22.36;38.54;95443.13;5005371;28;20639;-63
2023/05/02 06:03:12;;;;;;;4.10;3.47;;;;;;;22.11;38.99;95441.53;5002305;28;20295;-64
2023/05/02 06:05:39;;;;;;;3.42;3.13;;;;;;;22.57;37.72;95443.31;5004192;28;20290;-62
2023/05/02 06:08:06;;;;;;;3.75;2.90;;;;;;;22.09;38.35;95456.34;5002103;28;20219;-62
2023/05/02 06:10:32;;;;;;;3.63;3.33;;;;;;;21.44;39.89;95461.00;5002408;28;20302;-64
2023/05/02 06:12:59;;;;;;;3.58;3.38;;;;;;;22.42;38.00;95452.22;4999163;28;20354;-63
2023/05/02 06:15:27;;;;;;;4.97;3.13;;;;;;;22.05;38.70;95447.13;5006625;28;20297;-64
2023/05/02 06:17:54;;;;;;;3.50;3.17;;;;;;;23.64;36.25;95433.34;5004710;28;20212;-66
2023/05/02 06:20:20;;;;;;;3.55;3.35;;;;;;;25.12;33.55;95436.75;5005504;28;20324;-64
2023/05/02 06:22:47;;;;;;;3.80;3.50;;;;;;;24.46;33.88;95434.47;5001970;28;20501;-64
2023/05/02 06:25:14;;;;;;;3.90;3.50;;;;;;;23.07;35.85;95448.09;5004745;28;20294;-62
2023/05/02 06:27:40;;;;;;;3.65;3.45;;;;;;;22.42;37.41;95436.69;5004522;28;20349;-64
2023/05/02 06:30:08;;;;;;;3.58;3.38;;;;;;;22.71;36.70;95415.44;5006259;28;20306;-62
2023/05/02 06:32:36;;;;;;;7.25;3.20;;;;;;;22.19;37.91;95444.38;5005465;28;20670;-63
2023/05/02 06:35:03;;;;;;;3.53;3.25;;;;;;;22.67;36.77;95444.28;5004411;28;20294;-62
2023/05/02 06:37:34;;;;;;;3.72;3.42;;;;;;;23.13;36.38;95440.81;5005112;28;20204;-63
2023/05/02 06:40:00;;;;;;;4.32;3.60;;;;;;;23.34;36.00;95446.91;5002746;28;20200;-65
2023/05/02 06:42:27;;;;;;;3.92;3.15;;;;;;;23.73;35.26;95425.66;5004972;28;20781;-64
2023/05/02 06:44:54;;;;;;;4.95;3.40;;;;;;;24.24;34.59;95427.63;5003825;28;20635;-64
2023/05/02 06:47:21;;;;;;;4.30;3.30;;;;;;;26.49;30.70;95422.88;5005007;28;20235;-64
2023/05/02 06:49:49;;;;;;;3.83;3.47;;;;;;;27.49;28.92;95417.91;5003252;28;20223;-63
2023/05/02 06:52:15;;;;;;;6.95;2.97;;;;;;;28.02;27.97;95420.59;5004449;28;20214;-65
2023/05/02 06:54:42;;;;;;;4.72;3.17;;;;;;;27.22;28.33;95430.97;5003670;28;20211;-65
2023/05/02 06:57:09;;;;;;;6.55;2.67;;;;;;;27.10;28.52;95427.72;5003105;28;20208;-65
2023/05/02 06:59:36;;;;;;;2.85;2.65;;;;;;;27.81;27.64;95421.88;5002087;28;20211;-64
2023/05/02 07:02:03;;;;;;;6.00;3.40;;;;;;;27.40;27.85;95418.78;5004261;28;20255;-64
2023/05/02 07:04:30;;;;;;;3.33;2.45;;;;;;;27.01;28.45;95431.16;5005088;28;20303;-63
2023/05/02 07:06:58;;;;;;;3.80;2.90;;;;;;;25.88;30.07;95424.94;5001486;28;20214;-65
2023/05/02 07:09:24;;;;;;;3.03;2.83;;;;;;;26.35;29.39;95421.53;5008191;28;20292;-64
2023/05/02 07:11:51;;;;;;;2.40;2.20;;;;;;;27.35;28.27;95413.19;5011058;28;20211;-65
2023/05/02 07:14:18;;;;;;;6.80;2.95;;;;;;;29.06;25.57;95416.34;5008082;28;20879;-66
2023/05/02 07:16:44;;;;;;;5.13;2.60;;;;;;;30.50;24.53;95423.13;5007707;28;20654;-65
2023/05/02 07:19:11;;;;;;;2.70;2.33;;;;;;;29.84;24.47;95425.84;5008759;28;20243;-67
2023/05/02 07:21:38;;;;;;;2.88;2.60;;;;;;;28.82;25.36;95434.53;5007862;28;20321;-65
2023/05/02 07:24:06;;;;;;;3.38;2.53;;;;;;;28.42;25.93;95427.19;5007757;28;20762;-65
2023/05/02 07:26:32;;;;;;;3.65;2.72;;;;;;;28.76;25.07;95430.69;5008057;28;20291;-62
2023/05/02 07:28:59;;;;;;;2.60;2.50;;;;;;;28.27;25.61;95426.91;5008143;28;20239;-62
2023/05/02 07:31:26;;;;;;;5.20;2.60;;;;;;;30.32;24.39;95425.13;5001666;28;20215;-65
2023/05/02 07:33:53;;;;;;;3.03;2.40;;;;;;;32.05;22.29;95420.88;5005674;28;20295;-64
2023/05/02 07:36:19;;;;;;;2.97;2.42;;;;;;;34.12;20.11;95412.19;5008836;28;20299;-64
2023/05/02 07:38:46;;;;;;;2.47;2.28;;;;;;;34.99;18.90;95415.38;5007163;28;20212;-64
2023/05/02 07:41:15;;;;;;;2.28;2.15;;;;;;;34.09;19.93;95417.84;5009477;28;20290;-65
2023/05/02 07:43:41;;;;;;;2.58;2.38;;;;;;;33.88;19.71;95423.91;5008535;28;20214;-65
2023/05/02 07:46:08;;;;;;;5.75;2.50;;;;;;;31.70;21.36;95435.38;5005591;28;20311;-65
2023/05/02 07:48:34;;;;;;;4.15;2.30;;;;;;;29.66;23.39;95429.41;5004159;28;20393;-64
2023/05/02 07:51:07;;;;;;;4.40;3.00;;;;;;;28.83;24.24;95425.72;5007431;28;20326;-64
2023/05/02 07:53:34;;;;;;;2.25;2.15;;;;;;;28.08;25.23;95435.69;5006834;28;20414;-64
2023/05/02 07:56:03;;;;;;;2.58;2.42;;;;;;;27.33;26.23;95422.94;5006153;28;20215;-63
2023/05/02 07:58:31;;;;;;;2.80;2.60;;;;;;;27.49;26.03;95425.72;5002576;28;20204;-64
2023/05/02 08:00:58;;;;;;;2.45;2.30;;;;;;;28.15;25.62;95417.63;5007476;28;20295;-65
2023/05/02 08:03:25;;;;;;;3.75;2.45;;;;;;;30.87;22.63;95408.72;5006412;28;20251;-67
2023/05/02 08:05:52;;;;;;;2.47;2.28;;;;;;;31.86;20.60;95414.28;5007639;28;20248;-65
2023/05/02 08:08:19;;;;;;;5.90;2.45;;;;;;;31.72;21.49;95423.69;5007373;28;20317;-65
2023/05/02 08:10:45;;;;;;;3.67;2.30;;;;;;;29.85;22.64;95412.59;5006924;28;21177;-65
2023/05/02 08:13:12;;;;;;;2.35;2.25;;;;;;;29.59;23.17;95419.72;5004446;28;21764;-65
2023/05/02 08:15:40;;;;;;;4.05;2.40;;;;;;;30.01;23.43;95417.06;5007401;28;20298;-64
2023/05/02 08:18:07;;;;;;;2.13;1.83;;;;;;;30.54;22.56;95419.22;5007142;28;20204;-63
2023/05/02 08:20:33;;;;;;;2.42;2.22;;;;;;;30.58;22.08;95415.31;5007660;28;20263;-64
2023/05/02 08:23:00;;;;;;;3.90;2.15;;;;;;;29.38;23.33;95420.09;5006585;28;21037;-64
2023/05/02 08:25:27;;;;;;;2.65;2.45;;;;;;;30.30;23.11;95427.91;5005940;28;20282;-65
2023/05/02 08:27:53;;;;;;;2.65;2.45;;;;;;;30.70;22.28;95418.41;5007101;28;20235;-64
2023/05/02 08:30:20;;;;;;;3.38;2.20;;;;;;;32.18;21.20;95421.09;5006973;28;20644;-64
2023/05/02 08:32:48;;;;;;;6.53;1.98;;;;;;;30.86;21.65;95418.38;5007030;28;20292;-65
2023/05/02 08:35:15;;;;;;;2.40;2.10;;;;;;;30.21;22.29;95409.69;5007064;28;20299;-64
2023/05/02 08:37:41;;;;;;;2.20;2.00;;;;;;;29.85;23.73;95411.75;5006892;28;20292;-68
2023/05/02 08:40:12;;;;;;;2.63;2.45;;;;;;;30.09;22.21;95419.69;5005878;28;20683;-64
2023/05/02 08:42:42;;;;;;;3.65;2.38;;;;;;;27.76;24.90;95438.78;5007108;28;20369;-66
2023/05/02 08:45:10;;;;;;;2.85;1.90;;;;;;;27.47;25.63;95427.66;5000581;28;20239;-63
2023/05/02 08:47:39;;;;;;;4.97;2.05;;;;;;;27.84;24.66;95421.56;5005355;28;20476;-63
2023/05/02 08:50:09;;;;;;;3.78;2.35;;;;;;;28.48;24.37;95415.28;5005070;28;20339;-64
2023/05/02 08:52:36;;;;;;;2.20;2.00;;;;;;;28.64;23.93;95418.03;5007151;28;20684;-65
2023/05/02 08:55:03;;;;;;;1.85;1.75;;;;;;;27.65;25.17;95425.13;5006271;28;20258;-63
2023/05/02 08:57:30;;;;;;;2.35;2.20;;;;;;;27.64;25.50;95411.25;5005969;28;20630;-64
2023/05/02 08:59:57;;;;;;;2.03;1.88;;;;;;;28.81;24.18;95414.59;5005327;28;20207;-62
2023/05/02 09:02:41;;;;;;;2.28;2.17;;;;;;;30.53;22.69;95407.06;5006600;28;20287;-65
2023/05/02 09:05:12;;;;;;;2.20;2.10;;;;;;;30.03;22.23;95409.84;4999586;28;20326;-66
2023/05/02 09:07:46;;;;;;;2.58;2.38;;;;;;;26.08;26.55;95408.34;5000772;28;20239;-64
2023/05/02 09:10:13;;;;;;;3.60;2.10;;;;;;;23.79;30.05;95415.72;5000883;28;21574;-64
2023/05/02 09:12:40;;;;;;;1.90;1.80;;;;;;;21.97;33.09;95436.50;5001971;28;20298;-62
2023/05/02 09:15:11;;;;;;;2.47;1.90;;;;;;;21.29;34.72;95421.53;5005048;28;20259;-64
2023/05/02 09:17:42;;;;;;;2.17;1.98;;;;;;;21.09;35.17;95404.81;5001186;28;20294;-64
2023/05/02 09:20:13;;;;;;;2.30;2.20;;;;;;;20.74;36.76;95419.34;5003584;28;20235;-63
2023/05/02 09:22:47;;;;;;;3.58;2.80;;;;;;;20.25;36.80;95414.84;5005762;28;20258;-64
2023/05/02 09:25:14;;;;;;;3.58;2.53;;;;;;;19.96;38.62;95403.84;5005990;28;20203;-65
2023/05/02 09:27:52;;;;;;;2.22;2.13;;;;;;;19.89;39.12;95408.56;5005450;28;20235;-62
2023/05/02 09:30:20;;;;;;;2.80;2.17;;;;;;;19.93;37.67;95415.19;5006188;28;20358;-73
2023/05/02 09:32:50;;;;;;;2.38;2.20;;;;;;;19.85;38.20;95406.25;5008341;28;20693;-68
2023/05/02 09:35:22;;;;;;;5.82;2.53;;;;;;;20.02;38.01;95418.91;5007216;28;20215;-74
2023/05/02 09:37:53;;;;;;;3.05;2.28;;;;;;;19.86;37.45;95395.03;5004712;28;20223;-64
2023/05/02 09:40:20;;;;;;;8.43;2.53;;;;;;;20.13;37.81;95405.31;5006378;28;20208;-65
2023/05/02 09:42:47;;;;;;;2.70;2.60;;;;;;;20.15;38.31;95403.44;5006146;28;20293;-65
2023/05/02 09:45:21;;;;;;;4.53;2.60;;;;;;;20.42;37.53;95398.25;5006330;28;20790;-64
2023/05/02 09:47:48;;;;;;;2.25;2.15;;;;;;;20.71;38.55;95399.69;5005591;28;20623;-64
2023/05/02 09:50:34;;;;;;;4.97;2.65;;;;;;;20.81;36.63;95392.97;5002907;28;20318;-64
2023/05/02 09:53:03;;;;;;;2.58;2.38;;;;;;;21.12;36.70;95393.44;5004470;28;20306;-68
2023/05/02 09:55:30;;;;;;;3.35;2.47;;;;;;;20.96;35.24;95396.25;5005269;28;20212;-65
2023/05/02 09:57:56;;;;;;;3.03;2.10;;;;;;;20.96;36.16;95386.75;5005430;28;20208;-64
2023/05/02 10:00:23;;;;;;;2.75;2.58;;;;;;;21.15;35.21;95385.47;5005689;28;20303;-65
2023/05/02 10:02:51;;;;;;;4.00;2.40;;;;;;;20.76;35.90;95392.47;5006112;28;20219;-67
2023/05/02 10:05:18;;;;;;;3.15;2.45;;;;;;;20.41;36.75;95396.59;5005598;28;20211;-61
2023/05/02 10:07:47;;;;;;;3.60;2.42;;;;;;;20.32;37.29;95385.09;5005363;28;20337;-63
2023/05/02 10:10:17;;;;;;;4.03;2.05;;;;;;;20.30;36.97;95382.59;5005025;28;20692;-63
2023/05/02 10:12:46;;;;;;;2.17;2.08;;;;;;;20.32;38.73;95379.94;5005120;28;20222;-62
2023/05/02 10:15:15;;;;;;;3.35;2.72;;;;;;;20.21;36.89;95372.91;5005967;28;20773;-61
2023/05/02 10:17:47;;;;;;;3.15;2.60;;;;;;;20.20;37.44;95381.59;5005637;28;20689;-62
2023/05/02 10:20:22;;;;;;;3.15;2.30;;;;;;;20.18;36.41;95380.84;5006201;28;20317;-64
2023/05/02 10:22:51;;;;;;;2.63;2.50;;;;;;;19.94;36.70;95390.22;5005160;28;20436;-65
2023/05/02 10:25:18;;;;;;;2.15;2.05;;;;;;;20.05;38.45;95372.25;5005683;28;20329;-63
2023/05/02 10:27:45;;;;;;;4.13;2.85;;;;;;;20.15;36.58;95370.72;5005737;28;20258;-63
2023/05/02 10:30:14;;;;;;;2.42;2.22;;;;;;;20.35;36.47;95361.66;5004940;28;20290;-65
2023/05/02 10:32:42;;;;;;;2.95;2.67;;;;;;;20.67;35.42;95369.84;5005365;28;20203;-63
2023/05/02 10:35:10;;;;;;;2.95;2.30;;;;;;;20.85;35.21;95360.00;5010006;28;20227;-63
2023/05/02 10:37:39;;;;;;;2.20;2.10;;;;;;;20.99;35.29;95358.13;5007971;28;20239;-63
2023/05/02 10:40:10;;;;;;;4.93;2.10;;;;;;;21.20;33.79;95353.22;5009875;28;20296;-64
2023/05/02 10:42:39;;;;;;;5.85;2.35;;;;;;;21.33;35.16;95355.75;5009383;28;20232;-62
2023/05/02 10:45:11;;;;;;;9.55;2.25;;;;;;;21.47;35.67;95353.03;5009156;28;20207;-65
2023/05/02 10:47:38;;;;;;;2.65;2.20;;;;;;;21.08;34.02;95353.22;5008759;28;20307;-62
2023/05/02 10:50:07;;;;;;;2.35;1.65;;;;;;;21.00;34.24;95352.03;5008379;28;20868;-63
2023/05/02 10:52:36;;;;;;;2.97;2.10;;;;;;;21.14;34.03;95342.47;5010347;28;20215;-61
2023/05/02 10:55:18;;;;;;;2.42;2.33;;;;;;;21.36;34.41;95340.84;5009812;28;20210;-61
2023/05/02 10:58:22;;;;;;;2.35;2.08;;;;;;;21.16;33.86;95351.75;5009751;28;20199;-63
2023/05/02 11:00:49;;;;;;;2.97;2.60;;;;;;;20.76;35.34;95334.81;5009395;28;20203;-64
2023/05/02 11:03:54;;;;;;;2.58;2.47;;;;;;;20.84;34.73;95341.09;5009313;28;20732;-62
2023/05/02 11:06:20;;;;;;;2.45;2.25;;;;;;;21.16;35.24;95335.44;5009387;28;20294;-64
2023/05/02 11:08:47;;;;;;;6.05;2.35;;;;;;;21.24;33.91;95338.34;5008236;28;20295;-61
2023/05/02 11:11:45;;;;;;;2.50;2.05;;;;;;;21.33;34.34;95335.06;5009096;28;20295;-63
2023/05/02 11:14:33;;;;;;;2.92;2.42;;;;;;;21.41;33.37;95334.53;4947405;28;20330;-64
2023/05/02 11:17:07;;;;;;;2.03;1.92;;;;;;;21.39;33.98;95332.06;5003526;28;20313;-62
2023/05/02 11:20:07;;;;;;;2.33;2.20;;;;;;;21.34;33.49;95328.97;5008056;28;20740;-63
2023/05/02 11:22:34;;;;;;;2.08;1.88;;;;;;;21.25;33.48;95329.66;5007982;28;20220;-64
2023/05/02 11:25:01;;;;;;;2.85;1.90;;;;;;;21.38;33.62;95317.47;5008979;28;20353;-62
2023/05/02 11:27:40;;;;;;;2.60;2.10;;;;;;;21.30;33.88;95312.84;5009367;28;20296;-63
2023/05/02 11:30:08;;;;;;;2.95;2.33;;;;;;;21.48;33.53;95315.91;5007617;28;20212;-63
2023/05/02 11:33:11;;;;;;;3.63;1.65;;;;;;;21.12;33.77;95334.00;5007701;28;20200;-63
2023/05/02 11:35:42;;;;;;;2.28;2.00;;;;;;;21.17;34.21;95311.22;4999012;28;20212;-63
2023/05/02 11:38:11;;;;;;;3.28;2.13;;;;;;;21.19;33.37;95314.53;5008340;28;20693;-63
2023/05/02 11:40:37;;;;;;;3.08;2.47;;;;;;;21.45;33.47;95308.34;5007691;28;20262;-62
2023/05/02 11:43:14;;;;;;;2.63;2.38;;;;;;;21.43;33.13;95317.97;5008122;28;20297;-62